Time;durP1;ratioP1;P1;durP2;ratioP2;P2;SDS_P1;SDS_P2;PMS_P1;PMS_P2;Temp;Humidity;BMP_temperature;BMP_pressure;BME280_temperature;BME280_humidity;BME280_pressure;Samples;Min_cycle;Max_cycle;Signal;HPM_P1;HPM_P2
2022/04/13 00:00:09;;;;;;;7.55;2.78;;;;;;;15.74;51.05;100234.94;4034918;29;20045;-58
2022/04/13 00:02:12;;;;;;;5.60;2.72;;;;;;;15.73;51.27;100234.09;4028358;29;20044;-58
2022/04/13 00:04:18;;;;;;;5.72;2.17;;;;;;;15.57;51.29;100241.22;4044315;29;20044;-58
2022/04/13 00:06:21;;;;;;;6.07;2.67;;;;;;;15.46;51.26;100240.47;4042098;29;20052;-58
2022/04/13 00:08:24;;;;;;;4.53;2.83;;;;;;;15.39;51.83;100241.41;4038409;29;20048;-58
2022/04/13 00:10:27;;;;;;;5.88;3.00;;;;;;;15.46;51.61;100245.69;4034855;29;20128;-58
2022/04/13 00:12:31;;;;;;;5.75;2.80;;;;;;;15.48;50.96;100242.19;4032729;29;20124;-58
2022/04/13 00:14:34;;;;;;;4.25;2.72;;;;;;;15.50;51.77;100242.16;4036497;29;20056;-61
2022/04/13 00:16:37;;;;;;;5.63;3.03;;;;;;;15.53;50.68;100243.00;4043725;29;20045;-58
2022/04/13 00:18:40;;;;;;;5.65;3.08;;;;;;;15.53;50.89;100247.38;4038482;29;20037;-58
2022/04/13 00:20:43;;;;;;;8.25;3.17;;;;;;;15.56;50.67;100244.72;4041340;29;20507;-58
2022/04/13 00:22:46;;;;;;;6.18;2.90;;;;;;;15.57;51.10;100249.09;4025773;29;20055;-58
2022/04/13 00:24:49;;;;;;;8.30;2.88;;;;;;;15.60;51.37;100245.59;4047838;29;20037;-58
2022/04/13 00:26:52;;;;;;;9.07;3.10;;;;;;;15.58;51.54;100256.06;4039167;29;20041;-58
2022/04/13 00:28:56;;;;;;;5.78;2.72;;;;;;;15.56;51.73;100257.81;4042598;29;20047;-57
2022/04/13 00:30:59;;;;;;;6.15;2.78;;;;;;;15.49;52.11;100256.16;4039015;29;20064;-58
2022/04/13 00:33:02;;;;;;;9.60;3.13;;;;;;;15.47;52.99;100252.69;4041641;29;20037;-57
2022/04/13 00:35:06;;;;;;;5.70;2.70;;;;;;;15.45;52.72;100259.66;4034612;29;20132;-58
2022/04/13 00:37:09;;;;;;;9.10;3.10;;;;;;;15.40;52.90;100256.25;4037378;29;20298;-58
2022/04/13 00:39:12;;;;;;;10.65;3.78;;;;;;;15.38;53.10;100264.13;4033953;29;20104;-58
2022/04/13 00:41:17;;;;;;;10.00;2.70;;;;;;;15.36;54.95;100256.28;4031176;29;20045;-58
2022/04/13 00:43:19;;;;;;;;;;;;;;;15.08;54.89;100247.75;4045398;29;20077;-58
2022/04/13 00:45:24;;;;;;;7.43;2.88;;;;;;;15.09;54.50;100254.75;4037313;29;19931;-58
2022/04/13 00:47:27;;;;;;;;;;;;;;;14.86;55.79;100259.28;4044115;29;20124;-58
2022/04/13 00:49:29;;;;;;;7.22;2.55;;;;;;;14.90;55.05;100255.75;4038445;29;19930;-58
2022/04/13 00:51:32;;;;;;;7.88;2.80;;;;;;;14.93;54.74;100251.38;4040141;29;20053;-58
2022/04/13 00:53:36;;;;;;;7.40;3.33;;;;;;;14.93;54.83;100250.50;4039315;29;20049;-58
2022/04/13 00:55:41;;;;;;;6.93;3.25;;;;;;;14.89;53.70;100252.25;4036689;29;20044;-58
2022/04/13 00:57:46;;;;;;;7.70;3.13;;;;;;;14.87;53.89;100250.56;4040245;29;20120;-58
2022/04/13 00:59:53;;;;;;;7.97;3.50;;;;;;;14.78;54.25;100247.09;4037657;29;20051;-58
2022/04/13 01:01:59;;;;;;;6.75;3.55;;;;;;;14.76;54.06;100241.03;4044392;29;20045;-58
2022/04/13 01:04:04;;;;;;;6.13;3.40;;;;;;;14.73;54.03;100242.78;4039293;29;20105;-58
2022/04/13 01:06:08;;;;;;;4.53;2.63;;;;;;;14.74;54.61;100249.75;4040747;29;20041;-58
2022/04/13 01:08:13;;;;;;;8.77;3.03;;;;;;;14.74;54.02;100255.00;4022718;29;20066;-58
2022/04/13 01:10:17;;;;;;;8.77;4.03;;;;;;;14.77;54.44;100254.97;4043830;29;20055;-58
2022/04/13 01:12:20;;;;;;;7.00;3.17;;;;;;;14.71;53.88;100249.78;4045060;29;20117;-58
2022/04/13 01:14:23;;;;;;;7.72;2.95;;;;;;;14.72;54.34;100246.25;4048355;29;20075;-58
2022/04/13 01:16:27;;;;;;;7.32;3.03;;;;;;;14.73;55.07;100248.00;4044364;29;20068;-58
2022/04/13 01:18:31;;;;;;;7.53;2.97;;;;;;;14.74;54.73;100255.84;4045638;29;20041;-58
2022/04/13 01:20:35;;;;;;;7.75;2.95;;;;;;;14.69;55.21;100255.03;4052243;29;20072;-58
2022/04/13 01:22:40;;;;;;;6.38;3.17;;;;;;;14.70;55.44;100261.13;4042653;29;20043;-58
2022/04/13 01:24:43;;;;;;;6.05;2.63;;;;;;;14.69;55.25;100261.97;4041379;29;20056;-58
2022/04/13 01:26:46;;;;;;;6.22;2.97;;;;;;;14.66;55.30;100266.38;4039490;29;20039;-58
2022/04/13 01:28:49;;;;;;;7.30;3.33;;;;;;;14.66;55.12;100269.00;4041726;29;20100;-57
2022/04/13 01:30:52;;;;;;;8.70;3.10;;;;;;;14.60;55.39;100274.22;4051467;29;20131;-58
2022/04/13 01:32:56;;;;;;;7.78;2.92;;;;;;;14.52;55.61;100290.84;4031767;29;20040;-57
2022/04/13 01:35:00;;;;;;;7.13;2.92;;;;;;;14.44;56.17;100283.91;4034270;29;20127;-58
2022/04/13 01:37:04;;;;;;;5.72;2.65;;;;;;;14.42;56.34;100292.63;4036512;29;20037;-58
2022/04/13 01:39:08;;;;;;;6.45;3.22;;;;;;;14.35;56.40;100288.28;4046486;29;20100;-58
2022/04/13 01:41:11;;;;;;;5.20;2.67;;;;;;;14.29;57.26;100287.47;4036225;29;20049;-58
2022/04/13 01:43:14;;;;;;;5.35;2.90;;;;;;;14.29;57.60;100287.47;4050177;29;20131;-57
2022/04/13 01:45:20;;;;;;;6.45;3.72;;;;;;;14.28;57.81;100290.94;4041296;29;20785;-57
2022/04/13 01:47:23;;;;;;;5.93;3.28;;;;;;;14.27;57.86;100297.03;4038291;29;20045;-58
2022/04/13 01:49:26;;;;;;;7.57;3.05;;;;;;;14.23;58.59;100292.69;4051261;29;20045;-58
2022/04/13 01:51:29;;;;;;;5.43;3.05;;;;;;;14.21;59.30;100291.84;4038537;29;20140;-58
2022/04/13 01:53:32;;;;;;;8.88;3.58;;;;;;;14.16;59.42;100293.56;4047395;29;20068;-57
2022/04/13 01:55:36;;;;;;;7.35;3.28;;;;;;;14.11;60.15;100295.34;4043135;29;20051;-58
2022/04/13 01:57:40;;;;;;;9.95;3.70;;;;;;;14.09;60.39;100302.31;4036728;29;20036;-58
2022/04/13 01:59:43;;;;;;;7.60;3.42;;;;;;;14.04;60.23;100298.84;4047118;29;20052;-58
2022/04/13 02:01:46;;;;;;;6.30;3.60;;;;;;;14.00;60.24;100287.53;4050572;29;20064;-58
2022/04/13 02:03:50;;;;;;;8.35;3.85;;;;;;;14.01;59.12;100288.41;4048404;29;20048;-58
2022/04/13 02:05:53;;;;;;;6.70;2.97;;;;;;;13.96;59.49;100286.69;4064161;29;20052;-58
2022/04/13 02:07:56;;;;;;;6.65;3.13;;;;;;;13.97;58.67;100292.75;4041737;29;20044;-58
2022/04/13 02:09:59;;;;;;;8.02;3.53;;;;;;;14.01;58.39;100294.50;4036213;29;20037;-58
2022/04/13 02:12:04;;;;;;;4.97;3.20;;;;;;;14.04;58.68;100297.09;4044774;29;20068;-57
2022/04/13 02:14:07;;;;;;;10.65;3.50;;;;;;;14.06;59.05;100299.72;4037243;29;20047;-58
2022/04/13 02:16:11;;;;;;;10.20;3.70;;;;;;;14.07;59.44;100298.84;4038346;29;20044;-58
2022/04/13 02:18:14;;;;;;;6.47;3.10;;;;;;;14.09;59.24;100297.09;4031436;29;20049;-58
2022/04/13 02:20:16;;;;;;;7.45;3.85;;;;;;;14.08;59.94;100290.13;4038111;29;20045;-58
2022/04/13 02:22:19;;;;;;;6.75;3.22;;;;;;;14.07;60.17;100291.84;4031856;29;20049;-58
2022/04/13 02:24:42;;;;;;;5.50;2.90;;;;;;;14.06;60.11;100297.09;4039772;29;20051;-58
2022/04/13 02:26:45;;;;;;;9.38;3.38;;;;;;;14.03;60.47;100297.09;4032660;29;20129;-58
2022/04/13 02:28:50;;;;;;;7.30;3.67;;;;;;;14.03;60.70;100302.34;4032555;29;20048;-58
2022/04/13 02:30:53;;;;;;;7.93;3.25;;;;;;;13.99;60.76;100295.38;4036257;29;20124;-58
2022/04/13 02:32:56;;;;;;;8.02;3.53;;;;;;;13.96;61.06;100301.50;4030742;29;20037;-58
2022/04/13 02:35:00;;;;;;;6.82;3.30;;;;;;;13.93;61.32;100293.63;4032820;29;20053;-58
2022/04/13 02:37:03;;;;;;;8.02;2.72;;;;;;;13.92;60.08;100291.91;4018291;29;20045;-58
2022/04/13 02:39:06;;;;;;;5.50;3.05;;;;;;;13.90;60.51;100298.88;4029447;29;20299;-58
2022/04/13 02:41:09;;;;;;;5.50;3.10;;;;;;;13.91;60.32;100298.88;4032756;29;20037;-58
2022/04/13 02:43:12;;;;;;;5.85;3.25;;;;;;;13.88;60.57;100298.88;4034014;29;20105;-58
2022/04/13 02:45:16;;;;;;;8.52;3.33;;;;;;;13.87;60.07;100306.72;4026584;29;20050;-58
2022/04/13 02:47:19;;;;;;;6.20;3.30;;;;;;;13.89;60.25;100303.25;4035354;29;20047;-58
2022/04/13 02:49:22;;;;;;;4.10;2.33;;;;;;;13.89;60.45;100299.78;4026173;29;20173;-58
2022/04/13 02:51:25;;;;;;;8.10;3.10;;;;;;;13.92;59.43;100304.97;4036386;29;20581;-58
2022/04/13 02:53:30;;;;;;;6.15;3.10;;;;;;;13.91;58.93;100303.25;4050597;29;20049;-58
2022/04/13 02:55:33;;;;;;;8.18;3.08;;;;;;;13.91;58.86;100311.06;4035510;29;20049;-58
2022/04/13 02:57:36;;;;;;;9.05;2.85;;;;;;;13.93;58.67;100314.53;4029407;29;20045;-57
2022/04/13 02:59:39;;;;;;;4.75;2.75;;;;;;;13.90;58.66;100312.81;4030105;29;20041;-58
2022/04/13 03:01:44;;;;;;;7.43;2.92;;;;;;;13.94;59.04;100308.44;4048131;29;20064;-57
2022/04/13 03:03:47;;;;;;;5.95;2.97;;;;;;;13.91;58.71;100317.16;4033583;29;20089;-58
2022/04/13 03:05:50;;;;;;;7.95;2.85;;;;;;;13.86;59.10;100316.31;4034908;29;20075;-58
2022/04/13 03:07:53;;;;;;;8.43;3.13;;;;;;;13.82;58.99;100311.09;4033133;29;20037;-58
2022/04/13 03:09:56;;;;;;;7.55;3.30;;;;;;;13.77;58.49;100317.19;4036516;29;20037;-58
2022/04/13 03:11:59;;;;;;;5.72;3.03;;;;;;;13.78;58.45;100323.28;4016052;29;20416;-58
2022/04/13 03:14:01;;;;;;;6.95;3.38;;;;;;;13.79;58.47;100325.88;4026003;29;20140;-58
2022/04/13 03:16:05;;;;;;;10.48;3.17;;;;;;;13.82;58.41;100322.41;4030109;29;20152;-58
2022/04/13 03:18:09;;;;;;;10.38;3.88;;;;;;;13.81;58.91;100318.03;4034962;29;20100;-58
2022/04/13 03:20:12;;;;;;;6.72;3.70;;;;;;;13.76;58.72;100320.66;4034570;29;20145;-58
2022/04/13 03:22:15;;;;;;;5.05;2.88;;;;;;;13.70;58.85;100325.06;4023294;29;20463;-58
2022/04/13 03:24:19;;;;;;;6.72;3.10;;;;;;;13.66;59.47;100313.72;4035011;29;20045;-58
2022/04/13 03:26:22;;;;;;;4.75;2.83;;;;;;;13.60;59.70;100314.59;4034636;29;20046;-58
2022/04/13 03:28:25;;;;;;;5.15;2.60;;;;;;;13.55;59.63;100320.69;4036032;29;20486;-58
2022/04/13 03:30:28;;;;;;;6.13;3.08;;;;;;;13.50;59.68;100318.06;4032045;29;20053;-58
2022/04/13 03:32:36;;;;;;;6.45;2.60;;;;;;;13.47;59.89;100320.69;4031055;29;20136;-58
2022/04/13 03:34:40;;;;;;;6.80;3.17;;;;;;;13.49;59.74;100313.75;4031131;29;20041;-58
2022/04/13 03:36:43;;;;;;;6.93;2.95;;;;;;;13.40;59.55;100311.13;4029280;29;20045;-58
2022/04/13 03:38:46;;;;;;;5.55;2.97;;;;;;;13.40;59.71;100317.22;4028437;29;20037;-58
2022/04/13 03:40:49;;;;;;;5.45;3.33;;;;;;;13.39;59.67;100327.66;4033430;29;20094;-58
2022/04/13 03:42:52;;;;;;;6.00;3.28;;;;;;;13.38;59.83;100320.69;4036594;29;20492;-58
2022/04/13 03:44:55;;;;;;;5.47;3.35;;;;;;;13.37;60.04;100321.56;4035387;29;20044;-58
2022/04/13 03:46:58;;;;;;;8.30;3.60;;;;;;;13.33;60.02;100319.78;4028655;29;20057;-58
2022/04/13 03:49:01;;;;;;;9.25;3.25;;;;;;;13.28;60.03;100311.94;3976561;29;110951;-58
2022/04/13 03:51:05;;;;;;;5.25;2.95;;;;;;;13.27;60.11;100321.53;4032494;29;20065;-58
2022/04/13 03:53:08;;;;;;;6.68;3.45;;;;;;;13.23;60.25;100321.53;4037105;29;20131;-58
2022/04/13 03:55:11;;;;;;;6.47;3.30;;;;;;;13.20;60.53;100321.50;4032801;29;20522;-58
2022/04/13 03:57:14;;;;;;;5.90;3.05;;;;;;;13.14;60.62;100317.16;4041014;29;20115;-58
2022/04/13 03:59:20;;;;;;;6.85;2.78;;;;;;;13.11;60.63;100319.75;4023812;29;20049;-58
2022/04/13 04:01:23;;;;;;;5.18;3.10;;;;;;;13.05;60.91;100319.75;4031567;29;20071;-58
2022/04/13 04:03:26;;;;;;;6.32;3.38;;;;;;;13.01;60.41;100321.50;4031556;29;20084;-58
2022/04/13 04:05:29;;;;;;;8.48;3.50;;;;;;;13.00;60.48;100324.97;4034814;29;20056;-58
2022/04/13 04:07:33;;;;;;;6.40;3.00;;;;;;;12.97;60.78;100324.09;4033340;29;20108;-58
2022/04/13 04:09:36;;;;;;;7.97;3.13;;;;;;;12.91;60.98;100320.59;4031006;29;20044;-58
2022/04/13 04:11:39;;;;;;;8.52;3.33;;;;;;;12.86;60.83;100308.41;4036806;29;20052;-58
2022/04/13 04:13:42;;;;;;;7.40;3.30;;;;;;;12.81;61.16;100325.81;4033224;29;20087;-58
2022/04/13 04:15:45;;;;;;;9.02;3.70;;;;;;;12.81;60.49;100320.59;4033895;29;20049;-58
2022/04/13 04:17:47;;;;;;;11.05;3.35;;;;;;;12.80;60.48;100318.84;4032305;29;20047;-58
2022/04/13 04:19:50;;;;;;;6.32;3.38;;;;;;;12.80;61.06;100329.25;4032456;29;20598;-58
2022/04/13 04:21:54;;;;;;;9.40;3.38;;;;;;;12.80;61.18;100324.91;4029867;29;20511;-58
2022/04/13 04:23:58;;;;;;;12.23;5.00;;;;;;;12.74;61.08;100323.16;4026773;29;20496;-58
2022/04/13 04:26:02;;;;;;;5.43;3.08;;;;;;;12.71;62.12;100328.34;4036609;29;20328;-58
2022/04/13 04:28:06;;;;;;;11.80;3.42;;;;;;;12.70;62.68;100331.84;4038145;29;20088;-60
2022/04/13 04:30:12;;;;;;;8.30;3.38;;;;;;;12.66;62.56;100331.81;4038449;29;20069;-58
2022/04/13 04:32:15;;;;;;;5.85;3.17;;;;;;;12.63;62.44;100337.03;4041677;29;20064;-58
2022/04/13 04:34:19;;;;;;;6.45;2.92;;;;;;;12.61;63.18;100346.59;4042555;29;20490;-58
2022/04/13 04:36:22;;;;;;;6.05;3.20;;;;;;;12.54;63.23;100341.34;4041975;29;20129;-58
2022/04/13 04:38:27;;;;;;;5.50;2.92;;;;;;;12.53;63.13;100339.59;3972772;29;20508;-58
2022/04/13 04:40:31;;;;;;;7.43;3.10;;;;;;;12.54;63.17;100337.84;4049370;29;20555;-58
2022/04/13 04:42:44;;;;;;;8.27;3.22;;;;;;;12.51;62.41;100335.25;4043690;29;20406;-58
2022/04/13 04:44:47;;;;;;;5.45;3.20;;;;;;;12.51;62.94;100337.84;4035377;29;20774;-59
2022/04/13 04:46:50;;;;;;;5.43;3.08;;;;;;;12.51;62.71;100337.84;4037770;29;20123;-59
2022/04/13 04:48:53;;;;;;;10.52;3.33;;;;;;;12.44;63.12;100336.97;4034659;29;20400;-59
2022/04/13 04:50:56;;;;;;;6.05;2.92;;;;;;;12.39;62.59;100343.88;4041648;29;20041;-58
2022/04/13 04:53:01;;;;;;;10.10;4.28;;;;;;;12.36;62.73;100346.47;4039904;29;20499;-59
2022/04/13 04:55:06;;;;;;;8.30;5.00;;;;;;;12.35;61.95;100349.94;4040569;29;20572;-58
2022/04/13 04:57:10;;;;;;;9.77;4.65;;;;;;;12.31;62.23;100342.97;4040040;29;20045;-58
2022/04/13 04:59:15;;;;;;;13.18;4.65;;;;;;;12.30;62.14;100349.06;4040353;29;20043;-58
2022/04/13 05:01:18;;;;;;;8.38;4.50;;;;;;;12.34;62.35;100340.41;4034555;29;20053;-57
2022/04/13 05:03:21;;;;;;;10.07;5.47;;;;;;;12.37;62.78;100348.22;4033938;29;20041;-58
2022/04/13 05:05:24;;;;;;;8.48;5.18;;;;;;;12.37;62.08;100343.00;4038004;29;20037;-59
2022/04/13 05:07:27;;;;;;;11.77;6.00;;;;;;;12.36;62.14;100349.94;4026450;29;20042;-58
2022/04/13 05:09:29;;;;;;;9.85;5.47;;;;;;;12.38;62.68;100342.13;4027035;29;20052;-58
2022/04/13 05:11:37;;;;;;;13.07;5.50;;;;;;;12.37;61.90;100345.63;4033881;29;20049;-58
2022/04/13 05:13:41;;;;;;;7.53;4.70;;;;;;;12.39;62.61;100349.09;4031564;29;20037;-58
2022/04/13 05:15:45;;;;;;;9.13;4.80;;;;;;;12.45;62.18;100353.47;4030305;29;20492;-59
2022/04/13 05:17:48;;;;;;;10.20;6.25;;;;;;;12.47;61.79;100359.56;4037239;29;20415;-58
2022/04/13 05:19:51;;;;;;;11.10;6.03;;;;;;;12.50;61.87;100360.44;4030772;29;20518;-59
2022/04/13 05:21:54;;;;;;;12.02;6.28;;;;;;;12.45;62.75;100364.75;4032808;29;20152;-59
2022/04/13 05:23:57;;;;;;;8.77;5.15;;;;;;;12.43;62.41;100369.09;4035042;29;20414;-58
2022/04/13 05:26:00;;;;;;;12.07;5.80;;;;;;;12.48;62.27;100363.91;4053944;29;20446;-58
2022/04/13 05:28:04;;;;;;;7.25;4.82;;;;;;;12.47;62.81;100365.66;4039064;29;20045;-59
2022/04/13 05:30:13;;;;;;;9.88;5.28;;;;;;;12.49;62.27;100369.13;4041738;29;20514;-58
2022/04/13 05:32:16;;;;;;;7.35;4.50;;;;;;;12.53;62.67;100373.50;4055436;29;20410;-59
2022/04/13 05:34:19;;;;;;;9.05;4.85;;;;;;;12.58;62.33;100374.38;4036302;29;20518;-58
2022/04/13 05:36:22;;;;;;;8.50;4.47;;;;;;;12.59;62.30;100380.50;4034384;29;20416;-59
2022/04/13 05:38:25;;;;;;;10.18;4.88;;;;;;;12.59;62.97;100385.69;4034818;29;20072;-58
2022/04/13 05:40:29;;;;;;;9.93;4.97;;;;;;;12.61;62.41;100380.50;4035814;29;20570;-59
2022/04/13 05:42:33;;;;;;;12.73;5.27;;;;;;;12.61;62.70;100386.56;4038812;29;20511;-58
2022/04/13 05:44:35;;;;;;;8.82;5.10;;;;;;;12.70;62.50;100386.63;4035085;29;20744;-58
2022/04/13 05:46:39;;;;;;;7.20;4.20;;;;;;;12.73;62.03;100389.25;4026145;29;20423;-58
2022/04/13 05:48:43;;;;;;;10.45;4.90;;;;;;;12.74;62.47;100397.94;4026784;29;20479;-58
2022/04/13 05:50:45;;;;;;;10.00;5.53;;;;;;;12.78;62.47;100397.09;4033334;29;20411;-58
2022/04/13 05:52:48;;;;;;;11.23;5.40;;;;;;;12.82;62.64;100391.03;4033005;29;20197;-58
2022/04/13 05:54:51;;;;;;;11.35;4.75;;;;;;;12.82;62.52;100396.25;4031054;29;20147;-58
2022/04/13 05:56:54;;;;;;;8.80;4.78;;;;;;;12.83;62.79;100397.09;4026739;29;20095;-58
2022/04/13 05:58:57;;;;;;;11.80;5.78;;;;;;;12.82;62.47;100396.25;4027260;29;20408;-58
2022/04/13 06:01:00;;;;;;;12.93;5.28;;;;;;;12.81;62.89;100397.09;4030621;29;20482;-58
2022/04/13 06:03:04;;;;;;;10.75;5.13;;;;;;;12.88;62.62;100403.22;4030669;29;20064;-58
2022/04/13 06:05:27;;;;;;;8.27;4.60;;;;;;;12.86;62.23;100397.97;4034408;29;20045;-58
2022/04/13 06:07:30;;;;;;;9.15;4.93;;;;;;;12.89;62.58;100405.84;4032263;29;20086;-58
2022/04/13 06:09:34;;;;;;;13.45;5.72;;;;;;;12.93;62.45;100404.97;4034198;29;20033;-58
2022/04/13 06:11:37;;;;;;;11.98;6.18;;;;;;;13.00;62.96;100399.78;4033321;29;20101;-58
2022/04/13 06:13:41;;;;;;;11.15;5.43;;;;;;;13.05;62.37;100398.94;4047170;29;20045;-58
2022/04/13 06:15:44;;;;;;;11.65;5.05;;;;;;;13.12;62.68;100404.16;4035065;29;20084;-58
2022/04/13 06:17:47;;;;;;;14.05;4.70;;;;;;;13.16;63.01;100405.91;4034798;29;20055;-58
2022/04/13 06:19:51;;;;;;;11.52;4.70;;;;;;;13.18;63.42;100404.19;4030537;29;20072;-58
2022/04/13 06:21:54;;;;;;;6.90;3.90;;;;;;;13.19;63.70;100404.19;4032856;29;20471;-58
2022/04/13 06:23:57;;;;;;;9.57;4.65;;;;;;;13.25;63.61;100412.00;4025818;29;20496;-58
2022/04/13 06:26:00;;;;;;;8.68;4.47;;;;;;;13.33;63.16;100411.16;4025844;29;20132;-58
2022/04/13 06:28:03;;;;;;;12.40;5.20;;;;;;;13.34;63.10;100415.53;4024184;29;20044;-58
2022/04/13 06:30:07;;;;;;;7.38;4.63;;;;;;;13.38;62.70;100422.53;4025444;29;20050;-58
2022/04/13 06:32:12;;;;;;;20.42;6.25;;;;;;;13.34;62.71;100426.88;4035590;29;20466;-58
2022/04/13 06:34:16;;;;;;;13.73;5.45;;;;;;;13.35;62.53;100433.84;4024169;29;20038;-58
2022/04/13 06:36:20;;;;;;;10.93;5.63;;;;;;;13.40;62.33;100432.13;4034426;29;20132;-58
2022/04/13 06:38:23;;;;;;;;;;;;;;;13.35;62.62;100432.97;4035334;29;20087;-58
2022/04/13 06:40:27;;;;;;;12.57;5.50;;;;;;;13.50;62.56;100435.59;4024117;29;19928;-58
2022/04/13 06:42:33;;;;;;;19.15;6.35;;;;;;;13.60;62.52;100439.13;4034128;29;20515;-58
2022/04/13 06:44:36;;;;;;;11.68;5.65;;;;;;;13.72;61.88;100440.88;4035616;29;20411;-59
2022/04/13 06:46:39;;;;;;;16.65;6.10;;;;;;;13.91;62.28;100447.84;4036849;29;21938;-59
2022/04/13 06:48:42;;;;;;;11.05;4.43;;;;;;;14.03;62.41;100443.47;4034361;29;20408;-58
2022/04/13 06:50:45;;;;;;;14.02;4.28;;;;;;;14.13;63.69;100434.75;4032784;29;20037;-59
2022/04/13 06:52:49;;;;;;;16.58;4.78;;;;;;;14.22;64.95;100445.22;4033352;29;20041;-58
2022/04/13 06:54:52;;;;;;;13.50;3.97;;;;;;;14.27;64.56;100448.69;4035404;29;20076;-58
2022/04/13 06:56:55;;;;;;;12.25;4.90;;;;;;;14.28;63.91;100450.44;4034893;29;20045;-58
2022/04/13 06:58:58;;;;;;;16.25;5.75;;;;;;;14.34;62.46;100451.28;4037063;29;20144;-59
2022/04/13 07:01:01;;;;;;;14.52;6.82;;;;;;;14.35;61.95;100453.03;4035218;29;20044;-59
2022/04/13 07:03:05;;;;;;;13.52;5.82;;;;;;;14.32;61.79;100457.41;4023743;29;20045;-58
2022/04/13 07:05:15;;;;;;;13.32;5.57;;;;;;;14.30;61.35;100458.28;4029325;29;20041;-58
2022/04/13 07:07:18;;;;;;;15.85;5.93;;;;;;;14.38;60.80;100461.75;4024543;29;20090;-58
2022/04/13 07:09:22;;;;;;;15.77;6.78;;;;;;;14.44;61.00;100461.75;4024860;29;20102;-58
2022/04/13 07:11:25;;;;;;;12.70;5.82;;;;;;;14.47;60.37;100460.84;4023530;29;20098;-58
2022/04/13 07:13:28;;;;;;;20.83;6.25;;;;;;;14.51;60.98;100464.34;4037026;29;20141;-58
2022/04/13 07:15:31;;;;;;;19.75;6.80;;;;;;;14.42;59.34;100468.72;4023048;29;20045;-59
2022/04/13 07:17:35;;;;;;;18.65;5.97;;;;;;;14.42;59.29;100468.72;4022726;29;20042;-59
2022/04/13 07:19:38;;;;;;;20.45;6.88;;;;;;;14.38;59.51;100476.56;4028351;29;20132;-58
2022/04/13 07:21:41;;;;;;;18.50;6.57;;;;;;;14.37;59.70;100467.88;4038064;29;20045;-58
2022/04/13 07:24:00;;;;;;;18.60;5.65;;;;;;;14.38;60.13;100471.34;4036823;29;20132;-58
2022/04/13 07:26:04;;;;;;;25.90;7.88;;;;;;;14.44;59.80;100476.56;4033530;29;20041;-58
2022/04/13 07:28:07;;;;;;;21.63;6.35;;;;;;;14.52;59.09;100474.81;4033116;29;20128;-58
2022/04/13 07:30:12;;;;;;;20.98;6.05;;;;;;;14.62;58.67;100479.19;4034878;29;20044;-58
2022/04/13 07:32:14;;;;;;;16.45;6.28;;;;;;;14.57;58.41;100474.81;4034707;29;20093;-58
2022/04/13 07:34:18;;;;;;;22.73;6.50;;;;;;;14.60;58.10;100473.06;4034978;29;20049;-58
2022/04/13 07:36:20;;;;;;;26.63;7.57;;;;;;;14.68;57.71;100470.47;4025714;29;20069;-59
2022/04/13 07:38:26;;;;;;;16.05;6.22;;;;;;;14.75;58.02;100476.56;4048316;29;20460;-58
2022/04/13 07:40:29;;;;;;;26.95;7.18;;;;;;;14.76;58.24;100488.75;4048675;29;20040;-59
2022/04/13 07:42:33;;;;;;;13.52;6.85;;;;;;;14.78;57.70;100482.63;4023274;29;20041;-58
2022/04/13 07:44:36;;;;;;;;;;;;;;;14.72;57.87;100493.13;4024891;29;20054;-58
2022/04/13 07:46:59;;;;;;;18.65;6.78;;;;;;;14.79;57.94;100491.34;4030837;29;20000;-59
2022/04/13 07:49:05;;;;;;;17.60;6.32;;;;;;;14.84;57.19;100502.69;4026317;29;20068;-58
2022/04/13 07:51:08;;;;;;;13.20;7.25;;;;;;;14.90;56.95;100502.66;4024206;29;20049;-58
2022/04/13 07:53:11;;;;;;;16.50;6.20;;;;;;;15.01;56.86;100505.28;4024383;29;20415;-58
2022/04/13 07:55:14;;;;;;;18.60;5.70;;;;;;;15.09;56.14;100502.63;4024295;29;20053;-58
2022/04/13 07:57:17;;;;;;;14.02;6.45;;;;;;;15.19;55.87;100509.56;4022695;29;20053;-58
2022/04/13 07:59:21;;;;;;;12.60;5.78;;;;;;;15.22;56.39;100514.78;4023230;29;20041;-58
2022/04/13 08:01:24;;;;;;;13.57;6.25;;;;;;;15.29;57.06;100521.75;4020905;29;20060;-58
2022/04/13 08:03:27;;;;;;;12.60;6.88;;;;;;;15.33;56.30;100518.22;4020945;29;20053;-58
2022/04/13 08:05:37;;;;;;;14.10;6.75;;;;;;;15.42;56.18;100519.03;4022055;29;20047;-58
2022/04/13 08:07:40;;;;;;;15.30;6.75;;;;;;;15.56;55.94;100522.47;4051006;29;20052;-58
2022/04/13 08:09:43;;;;;;;16.52;7.78;;;;;;;15.83;53.82;100525.88;4037075;29;20055;-58
2022/04/13 08:11:46;;;;;;;11.68;7.03;;;;;;;15.90;53.55;100519.66;4036072;29;20079;-58
2022/04/13 08:13:49;;;;;;;11.98;6.70;;;;;;;15.87;54.26;100527.56;4036200;29;20049;-58
2022/04/13 08:15:53;;;;;;;13.55;6.68;;;;;;;15.86;54.16;100531.09;4036328;29;20431;-58
2022/04/13 08:17:56;;;;;;;21.13;7.70;;;;;;;15.86;54.03;100526.69;4037046;29;20503;-58
2022/04/13 08:19:59;;;;;;;10.60;7.18;;;;;;;15.97;54.20;100531.00;4037257;29;20132;-58
2022/04/13 08:22:02;;;;;;;11.68;6.72;;;;;;;16.24;52.10;100535.19;4023935;29;20045;-58
2022/04/13 08:24:06;;;;;;;15.55;7.43;;;;;;;16.19;53.13;100536.97;4023210;29;20045;-58
2022/04/13 08:26:09;;;;;;;18.77;7.43;;;;;;;16.24;52.18;100535.19;4023893;29;20056;-58
2022/04/13 08:28:12;;;;;;;10.48;6.18;;;;;;;16.21;53.04;100535.22;4023573;29;20136;-58
2022/04/13 08:30:15;;;;;;;19.75;7.10;;;;;;;16.33;52.27;100534.25;4038059;29;20049;-58
2022/04/13 08:32:20;;;;;;;13.25;6.25;;;;;;;16.39;52.35;100535.03;4023876;29;20206;-58
2022/04/13 08:34:24;;;;;;;11.85;7.22;;;;;;;16.49;51.46;100532.34;4023776;29;20037;-59
2022/04/13 08:36:27;;;;;;;11.35;6.57;;;;;;;16.47;51.75;100529.75;4022336;29;20053;-58
2022/04/13 08:38:30;;;;;;;11.55;6.57;;;;;;;16.52;52.48;100535.81;4027793;29;20052;-59
2022/04/13 08:40:39;;;;;;;14.15;7.35;;;;;;;16.65;51.42;100523.44;4032918;29;20510;-58
2022/04/13 08:42:50;;;;;;;12.35;7.22;;;;;;;16.75;51.76;100522.47;4038971;29;20051;-58
2022/04/13 08:44:53;;;;;;;12.52;7.20;;;;;;;16.93;50.91;100524.03;4022627;29;20038;-59
2022/04/13 08:47:02;;;;;;;16.90;6.90;;;;;;;17.00;50.63;100524.00;4020237;29;20557;-58
2022/04/13 08:49:09;;;;;;;20.67;7.28;;;;;;;17.08;49.70;100525.66;4020323;29;20145;-58
2022/04/13 08:51:35;;;;;;;13.98;7.82;;;;;;;17.14;49.29;100518.56;4020238;29;20121;-58
2022/04/13 08:53:43;;;;;;;19.05;8.30;;;;;;;17.08;49.53;100524.75;4031162;29;20261;-58
2022/04/13 08:55:54;;;;;;;18.88;8.10;;;;;;;17.11;49.77;100516.84;4007372;29;20053;-58
2022/04/13 08:58:08;;;;;;;19.38;8.93;;;;;;;17.20;49.66;100513.22;4035553;29;20045;-58
2022/04/13 09:00:13;;;;;;;13.73;8.10;;;;;;;17.22;49.73;100516.72;4037257;29;20092;-58
2022/04/13 09:02:32;;;;;;;20.27;11.10;;;;;;;17.40;49.34;100513.84;4036813;29;20052;-58
2022/04/13 09:04:43;;;;;;;18.00;11.27;;;;;;;17.63;49.31;100515.31;4036752;29;20073;-58
2022/04/13 09:06:48;;;;;;;23.27;12.68;;;;;;;17.76;48.78;100511.59;4036473;29;20049;-58
2022/04/13 09:08:55;;;;;;;21.35;11.93;;;;;;;17.76;48.86;100508.13;4019447;29;20041;-58
2022/04/13 09:10:58;;;;;;;32.20;14.25;;;;;;;17.89;48.15;100509.66;4036767;29;20502;-58
2022/04/13 09:13:02;;;;;;;25.67;12.65;;;;;;;17.85;47.88;100505.34;4036694;29;20117;-58
2022/04/13 09:15:07;;;;;;;21.80;11.73;;;;;;;17.95;47.74;100506.13;4036619;29;20041;-58
2022/04/13 09:17:10;;;;;;;18.83;11.30;;;;;;;18.01;47.14;100508.66;4036337;29;20087;-58
2022/04/13 09:19:13;;;;;;;20.85;9.73;;;;;;;18.04;47.81;100513.84;4036505;29;20060;-58
2022/04/13 09:21:18;;;;;;;18.02;8.35;;;;;;;18.05;47.86;100520.00;4034605;29;20469;-58
2022/04/13 09:23:22;;;;;;;20.13;9.10;;;;;;;18.27;45.59;100525.78;4033485;29;20571;-58
2022/04/13 09:25:27;;;;;;;16.90;7.65;;;;;;;18.30;45.66;100523.09;4023927;29;20052;-58
2022/04/13 09:27:30;;;;;;;;;;;;;;;18.36;46.22;100514.22;4023327;29;20535;-58
2022/04/13 09:29:32;;;;;;;17.95;8.77;;;;;;;18.39;46.53;100522.94;4024005;29;20370;-58
2022/04/13 09:31:36;;;;;;;10.98;6.35;;;;;;;18.48;46.71;100524.53;4029225;29;20041;-58
2022/04/13 09:33:39;;;;;;;14.53;6.77;;;;;;;18.59;47.11;100519.09;4029658;29;20069;-58